Parma — V2OZ9 — position and weather

sailwx.info

Track history (hours):
 
Tides and Currents Weather Stations Pressure Air Temp Water Temp Dewpoint Dewpoint Depression Visibility Wind Speed Wind Dir Waves Ship Positions

Parma

Last reported at 2017-Feb-25 01:33 UTC. Time now 2017-Feb-25 02:25 UTC.
Position N 51°54' E 004°26'.

MMSI: 279073176.

Date/timePositionNaut miles runAvg speedWind from/ knotsBaromVisibWave heightAir tempDewpointWater temp
2017-Feb-25 01:33N 51°54' E 004°26'0 0.0
2017-Feb-25 00:33N 51°54' E 004°26'0 0.0
2017-Feb-24 23:33N 51°54' E 004°26'0 0.0
2017-Feb-24 22:33N 51°54' E 004°26'0 0.0
2017-Feb-24 21:33N 51°54' E 004°26'0 0.0
2017-Feb-24 20:33N 51°54' E 004°26'0 0.0
2017-Feb-24 19:33N 51°54' E 004°26'0 0.0
2017-Feb-24 18:33N 51°54' E 004°26'0 0.0
2017-Feb-24 17:33N 51°54' E 004°26'0 0.1
2017-Feb-24 16:33N 51°54' E 004°26'1 1.1
2017-Feb-24 15:32N 51°54' E 004°25'0 0.0
2017-Feb-24 14:32N 51°54' E 004°25'0 0.0
2017-Feb-24 13:32N 51°54' E 004°25'0 0.0
2017-Feb-24 12:32N 51°54' E 004°25'0 0.0
2017-Feb-24 11:32N 51°54' E 004°25'0 0.0
2017-Feb-24 10:32N 51°54' E 004°25'0 0.0
2017-Feb-24 09:32N 51°54' E 004°25'0 0.0
2017-Feb-24 08:32N 51°54' E 004°25'0 0.0
2017-Feb-24 07:32N 51°54' E 004°25'0 0.0
2017-Feb-24 06:32N 51°54' E 004°25'0 0.0
2017-Feb-24 05:32N 51°54' E 004°25'0 0.0
2017-Feb-24 04:32N 51°54' E 004°25'0 0.0
2017-Feb-24 03:32N 51°54' E 004°25'0 0.0
2017-Feb-24 02:32N 51°54' E 004°25'0 0.0
2017-Feb-24 01:32N 51°54' E 004°25'0 0.0
2017-Feb-24 00:32N 51°54' E 004°25'0 0.0
2017-Feb-23 23:32N 51°54' E 004°25'0 0.0
2017-Feb-23 22:32N 51°54' E 004°25'0 0.0
2017-Feb-23 21:32N 51°54' E 004°25'0 0.0
2017-Feb-23 20:32N 51°54' E 004°25'0 0.0
2017-Feb-23 19:32N 51°54' E 004°25'0 0.0
2017-Feb-23 18:32N 51°54' E 004°25'0 0.0
2017-Feb-23 17:32N 51°54' E 004°25'0 0.0
2017-Feb-23 16:32N 51°54' E 004°25'0 0.0
2017-Feb-23 15:32N 51°54' E 004°25'0 0.0
2017-Feb-23 14:32N 51°54' E 004°25'0 0.0
2017-Feb-23 13:32N 51°54' E 004°25'0 0.0
2017-Feb-23 12:32N 51°54' E 004°25'0 0.0
2017-Feb-23 11:32N 51°54' E 004°25'0 0.0
2017-Feb-23 10:32N 51°54' E 004°25'0 0.0
2017-Feb-23 09:32N 51°54' E 004°25'0 0.0
2017-Feb-23 08:32N 51°54' E 004°25'0 0.0
2017-Feb-23 07:32N 51°54' E 004°25'0 0.0
2017-Feb-23 06:32N 51°54' E 004°25'0 0.0
2017-Feb-23 05:32N 51°54' E 004°25'0 0.0
2017-Feb-23 04:32N 51°54' E 004°25'0 0.0
2017-Feb-23 03:32N 51°54' E 004°25'0 0.0
2017-Feb-23 02:32N 51°54' E 004°25'0 0.0
2017-Feb-23 01:32N 51°54' E 004°25'0 0.0
2017-Feb-23 00:32N 51°54' E 004°25'0 0.0
2017-Feb-22 23:32N 51°54' E 004°25'0 0.0
2017-Feb-22 22:32N 51°54' E 004°25'2 2.2
2017-Feb-22 21:31N 51°54' E 004°28'0 0.0
2017-Feb-22 20:31N 51°54' E 004°28'0 0.0
2017-Feb-22 19:31N 51°54' E 004°28'0 0.0
2017-Feb-22 18:31N 51°54' E 004°28'0 0.0
2017-Feb-22 17:31N 51°54' E 004°28'0 0.0
2017-Feb-22 16:31N 51°54' E 004°28'0 0.0
2017-Feb-22 15:33N 51°54' E 004°28'6 6.3
2017-Feb-22 14:33N 51°54' E 004°18'1010.4
2017-Feb-22 13:33N 51°59' E 004°04'7 7.4
2017-Feb-22 12:33N 52°01' E 003°52'66 9.4
2017-Feb-22 05:33N 51°31' E 002°17'9 8.8
2017-Feb-22 04:33N 51°24' E 002°10'9 9.1
2017-Feb-22 03:34N 51°15' E 002°05'9 9.4
2017-Feb-22 02:33N 51°09' E 001°53'10 9.8
2017-Feb-22 01:33N 51°02' E 001°42'1010.0
2017-Feb-22 00:33N 50°55' E 001°31'126 9.6
2017-Feb-21 11:24N 50°03' W 001°29'8 8.3
2017-Feb-21 10:29N 50°01' W 001°41'183 9.2
2017-Feb-20 14:33N 48°33' W 005°46'  
2017-Feb-17 21:28N 39°09' W 009°51'8 9.3
2017-Feb-17 20:33N 39°00' W 009°51'9 9.2
2017-Feb-17 19:33N 38°51' W 009°51'9 9.5
2017-Feb-17 18:33N 38°41' W 009°51'8 7.8
2017-Feb-17 17:33N 38°38' W 009°41'10 9.5
2017-Feb-17 16:33N 38°39' W 009°29'4 4.1
2017-Feb-17 15:29N 38°40' W 009°24'0 0.0
2017-Feb-17 14:32N 38°40' W 009°24'0 0.0
2017-Feb-17 13:32N 38°40' W 009°24'0 0.0
2017-Feb-17 12:32N 38°40' W 009°24'4 4.6
2017-Feb-17 11:34N 38°36' W 009°24'10 9.7
2017-Feb-17 10:34N 38°26' W 009°25'10 9.6
2017-Feb-17 09:33N 38°17' W 009°24'9 9.4
2017-Feb-17 08:34N 38°07' W 009°24'1110.5
2017-Feb-17 07:33N 37°57' W 009°23'1110.9
2017-Feb-17 06:34N 37°46' W 009°22'1010.3
2017-Feb-17 05:33N 37°35' W 009°22'205 8.4
2017-Feb-16 05:05N 35°58' W 005°37'510.3
2017-Feb-16 04:33N 35°59' W 005°31'8 8.4
2017-Feb-16 03:34N 35°56' W 005°21'3 3.3
2017-Feb-16 02:31N 35°54' W 005°18'0 0.0
2017-Feb-16 01:31N 35°54' W 005°18'0 0.0
2017-Feb-16 00:31N 35°54' W 005°18'0 0.0
2017-Feb-15 23:31N 35°54' W 005°18'0 0.0
2017-Feb-15 22:33N 35°54' W 005°18'4 4.3
2017-Feb-15 21:34N 35°56' W 005°13'  
Track history (hours):
 
Tides and Currents Weather Stations Pressure Air Temp Water Temp Dewpoint Dewpoint Depression Visibility Wind Speed Wind Dir Waves Ship Positions

Parma

Last reported at 2017-Feb-25 01:33 UTC. Time now 2017-Feb-25 02:25 UTC.
Position N 51°54' E 004°26'.

MMSI: 279073176.

Date/timePositionNaut miles runAvg speedWind from/ knotsBaromVisibWave heightAir tempDewpointWater temp
2017-Feb-25 01:33N 51°54' E 004°26'0 0.0
2017-Feb-25 00:33N 51°54' E 004°26'0 0.0
2017-Feb-24 23:33N 51°54' E 004°26'0 0.0
2017-Feb-24 22:33N 51°54' E 004°26'0 0.0
2017-Feb-24 21:33N 51°54' E 004°26'0 0.0
2017-Feb-24 20:33N 51°54' E 004°26'0 0.0
2017-Feb-24 19:33N 51°54' E 004°26'0 0.0
2017-Feb-24 18:33N 51°54' E 004°26'0 0.0
2017-Feb-24 17:33N 51°54' E 004°26'0 0.1
2017-Feb-24 16:33N 51°54' E 004°26'1 1.1
2017-Feb-24 15:32N 51°54' E 004°25'0 0.0
2017-Feb-24 14:32N 51°54' E 004°25'0 0.0
2017-Feb-24 13:32N 51°54' E 004°25'0 0.0
2017-Feb-24 12:32N 51°54' E 004°25'0 0.0
2017-Feb-24 11:32N 51°54' E 004°25'0 0.0
2017-Feb-24 10:32N 51°54' E 004°25'0 0.0
2017-Feb-24 09:32N 51°54' E 004°25'0 0.0
2017-Feb-24 08:32N 51°54' E 004°25'0 0.0
2017-Feb-24 07:32N 51°54' E 004°25'0 0.0
2017-Feb-24 06:32N 51°54' E 004°25'0 0.0
2017-Feb-24 05:32N 51°54' E 004°25'0 0.0
2017-Feb-24 04:32N 51°54' E 004°25'0 0.0
2017-Feb-24 03:32N 51°54' E 004°25'0 0.0
2017-Feb-24 02:32N 51°54' E 004°25'0 0.0
2017-Feb-24 01:32N 51°54' E 004°25'0 0.0
2017-Feb-24 00:32N 51°54' E 004°25'0 0.0
2017-Feb-23 23:32N 51°54' E 004°25'0 0.0
2017-Feb-23 22:32N 51°54' E 004°25'0 0.0
2017-Feb-23 21:32N 51°54' E 004°25'0 0.0
2017-Feb-23 20:32N 51°54' E 004°25'0 0.0
2017-Feb-23 19:32N 51°54' E 004°25'0 0.0
2017-Feb-23 18:32N 51°54' E 004°25'0 0.0
2017-Feb-23 17:32N 51°54' E 004°25'0 0.0
2017-Feb-23 16:32N 51°54' E 004°25'0 0.0
2017-Feb-23 15:32N 51°54' E 004°25'0 0.0
2017-Feb-23 14:32N 51°54' E 004°25'0 0.0
2017-Feb-23 13:32N 51°54' E 004°25'0 0.0
2017-Feb-23 12:32N 51°54' E 004°25'0 0.0
2017-Feb-23 11:32N 51°54' E 004°25'0 0.0
2017-Feb-23 10:32N 51°54' E 004°25'0 0.0
2017-Feb-23 09:32N 51°54' E 004°25'0 0.0
2017-Feb-23 08:32N 51°54' E 004°25'0 0.0
2017-Feb-23 07:32N 51°54' E 004°25'0 0.0
2017-Feb-23 06:32N 51°54' E 004°25'0 0.0
2017-Feb-23 05:32N 51°54' E 004°25'0 0.0
2017-Feb-23 04:32N 51°54' E 004°25'0 0.0
2017-Feb-23 03:32N 51°54' E 004°25'0 0.0
2017-Feb-23 02:32N 51°54' E 004°25'0 0.0
2017-Feb-23 01:32N 51°54' E 004°25'0 0.0
2017-Feb-23 00:32N 51°54' E 004°25'0 0.0
2017-Feb-22 23:32N 51°54' E 004°25'0 0.0
2017-Feb-22 22:32N 51°54' E 004°25'2 2.2
2017-Feb-22 21:31N 51°54' E 004°28'0 0.0
2017-Feb-22 20:31N 51°54' E 004°28'0 0.0
2017-Feb-22 19:31N 51°54' E 004°28'0 0.0
2017-Feb-22 18:31N 51°54' E 004°28'0 0.0
2017-Feb-22 17:31N 51°54' E 004°28'0 0.0
2017-Feb-22 16:31N 51°54' E 004°28'0 0.0
2017-Feb-22 15:33N 51°54' E 004°28'6 6.3
2017-Feb-22 14:33N 51°54' E 004°18'1010.4
2017-Feb-22 13:33N 51°59' E 004°04'7 7.4
2017-Feb-22 12:33N 52°01' E 003°52'66 9.4
2017-Feb-22 05:33N 51°31' E 002°17'9 8.8
2017-Feb-22 04:33N 51°24' E 002°10'9 9.1
2017-Feb-22 03:34N 51°15' E 002°05'9 9.4
2017-Feb-22 02:33N 51°09' E 001°53'10 9.8
2017-Feb-22 01:33N 51°02' E 001°42'1010.0
2017-Feb-22 00:33N 50°55' E 001°31'126 9.6
2017-Feb-21 11:24N 50°03' W 001°29'8 8.3
2017-Feb-21 10:29N 50°01' W 001°41'183 9.2
2017-Feb-20 14:33N 48°33' W 005°46'  
2017-Feb-17 21:28N 39°09' W 009°51'8 9.3
2017-Feb-17 20:33N 39°00' W 009°51'9 9.2
2017-Feb-17 19:33N 38°51' W 009°51'9 9.5
2017-Feb-17 18:33N 38°41' W 009°51'8 7.8
2017-Feb-17 17:33N 38°38' W 009°41'10 9.5
2017-Feb-17 16:33N 38°39' W 009°29'4 4.1
2017-Feb-17 15:29N 38°40' W 009°24'0 0.0
2017-Feb-17 14:32N 38°40' W 009°24'0 0.0
2017-Feb-17 13:32N 38°40' W 009°24'0 0.0
2017-Feb-17 12:32N 38°40' W 009°24'4 4.6
2017-Feb-17 11:34N 38°36' W 009°24'10 9.7
2017-Feb-17 10:34N 38°26' W 009°25'10 9.6
2017-Feb-17 09:33N 38°17' W 009°24'9 9.4
2017-Feb-17 08:34N 38°07' W 009°24'1110.5
2017-Feb-17 07:33N 37°57' W 009°23'1110.9
2017-Feb-17 06:34N 37°46' W 009°22'1010.3
2017-Feb-17 05:33N 37°35' W 009°22'205 8.4
2017-Feb-16 05:05N 35°58' W 005°37'510.3
2017-Feb-16 04:33N 35°59' W 005°31'8 8.4
2017-Feb-16 03:34N 35°56' W 005°21'3 3.3
2017-Feb-16 02:31N 35°54' W 005°18'0 0.0
2017-Feb-16 01:31N 35°54' W 005°18'0 0.0
2017-Feb-16 00:31N 35°54' W 005°18'0 0.0
2017-Feb-15 23:31N 35°54' W 005°18'0 0.0
2017-Feb-15 22:33N 35°54' W 005°18'4 4.3
2017-Feb-15 21:34N 35°56' W 005°13'  

Dump ship's entire track history